createdAt,value
2022-11-27T00:01:13.670Z,3.97
2022-11-27T00:03:41.396Z,3.97
2022-11-27T00:06:12.024Z,3.95
2022-11-27T00:08:38.817Z,3.93
2022-11-27T00:11:07.976Z,3.93
2022-11-27T00:13:35.410Z,3.95
2022-11-27T00:16:03.020Z,3.86
2022-11-27T00:18:30.653Z,3.93
2022-11-27T00:21:02.809Z,3.85
2022-11-27T00:23:29.571Z,3.95
2022-11-27T00:25:56.423Z,3.96
2022-11-27T00:28:23.325Z,3.91
2022-11-27T00:30:50.176Z,3.92
2022-11-27T00:33:17.085Z,3.93
2022-11-27T00:35:44.042Z,3.92
2022-11-27T00:38:10.916Z,3.91
2022-11-27T00:40:37.691Z,3.90
2022-11-27T00:43:04.511Z,3.88
2022-11-27T00:45:31.216Z,3.87
2022-11-27T00:47:58.117Z,3.81
2022-11-27T00:50:24.993Z,3.81
2022-11-27T00:52:51.733Z,3.78
2022-11-27T00:55:18.535Z,3.79
2022-11-27T00:57:45.298Z,3.78
2022-11-27T01:00:12.766Z,3.78
2022-11-27T01:02:39.563Z,3.78
2022-11-27T01:05:07.063Z,3.76
2022-11-27T01:07:34.052Z,3.79
2022-11-27T01:10:06.123Z,3.78
2022-11-27T01:12:33.089Z,3.80
2022-11-27T01:14:59.887Z,3.83
2022-11-27T01:17:26.697Z,3.82
2022-11-27T01:19:53.445Z,3.78
2022-11-27T01:22:20.258Z,3.76
2022-11-27T01:24:46.957Z,3.77
2022-11-27T01:27:14.976Z,3.82
2022-11-27T01:29:42.001Z,3.81
2022-11-27T01:32:08.781Z,3.81
2022-11-27T01:34:35.595Z,3.80
2022-11-27T01:37:02.377Z,3.80
2022-11-27T01:39:29.153Z,3.80
2022-11-27T01:41:56.417Z,3.82
2022-11-27T01:44:26.102Z,3.83
2022-11-27T01:47:00.554Z,3.83
2022-11-27T01:50:18.168Z,3.84
2022-11-27T01:52:50.565Z,3.88
2022-11-27T01:55:34.405Z,3.91
2022-11-27T01:58:13.593Z,3.93
2022-11-27T02:00:40.715Z,3.98
2022-11-27T02:03:07.540Z,3.92
2022-11-27T02:05:34.501Z,3.98
2022-11-27T02:08:06.641Z,3.99
2022-11-27T02:10:46.340Z,3.99
2022-11-27T02:13:20.727Z,4.01
2022-11-27T02:16:05.850Z,4.01
2022-11-27T02:18:38.682Z,4.01
2022-11-27T02:21:05.448Z,4.07
2022-11-27T02:23:44.292Z,4.10
2022-11-27T02:26:37.085Z,4.15
2022-11-27T02:29:07.846Z,4.15
2022-11-27T02:31:55.408Z,4.12
2022-11-27T02:34:33.738Z,4.18
2022-11-27T02:37:09.112Z,4.20
2022-11-27T02:39:50.060Z,4.20
2022-11-27T02:42:21.161Z,4.17
2022-11-27T02:44:57.121Z,4.24
2022-11-27T02:47:24.338Z,4.22
2022-11-27T02:49:57.083Z,4.24
2022-11-27T02:52:27.661Z,4.27
2022-11-27T02:55:00.633Z,4.30
2022-11-27T02:57:28.801Z,4.27
2022-11-27T02:59:58.053Z,4.28
2022-11-27T03:02:36.077Z,4.29
2022-11-27T03:05:06.803Z,4.28
2022-11-27T03:07:43.993Z,4.28
2022-11-27T03:10:20.812Z,4.31
2022-11-27T03:12:48.839Z,4.36
2022-11-27T03:15:16.120Z,4.37
2022-11-27T03:17:51.921Z,4.40
2022-11-27T03:20:32.207Z,4.42
2022-11-27T03:22:59.049Z,4.41
2022-11-27T03:25:25.807Z,4.44
2022-11-27T03:28:04.040Z,4.42
2022-11-27T03:30:30.982Z,4.38
2022-11-27T03:32:57.941Z,4.45
2022-11-27T03:35:26.632Z,4.43
2022-11-27T03:37:54.049Z,4.43
2022-11-27T03:40:29.539Z,4.44
2022-11-27T03:43:09.817Z,4.43
2022-11-27T03:46:06.438Z,4.43
2022-11-27T03:48:36.670Z,4.44
2022-11-27T03:51:17.851Z,4.45
2022-11-27T03:53:58.817Z,4.40
2022-11-27T03:56:51.812Z,4.46
2022-11-27T03:59:27.430Z,4.48
2022-11-27T04:01:54.451Z,4.49
2022-11-27T04:04:21.470Z,4.49
2022-11-27T04:06:48.253Z,4.50
2022-11-27T04:09:15.058Z,4.55
2022-11-27T04:11:41.891Z,4.56
2022-11-27T04:14:08.642Z,4.44
2022-11-27T04:16:35.536Z,4.59
2022-11-27T04:19:02.554Z,4.60
2022-11-27T04:21:29.798Z,4.60
2022-11-27T04:23:56.556Z,4.60
2022-11-27T04:26:24.702Z,4.58
2022-11-27T04:28:51.495Z,4.58
2022-11-27T04:31:18.807Z,4.58
2022-11-27T04:33:45.586Z,4.59
2022-11-27T04:36:12.329Z,4.60
2022-11-27T04:38:39.390Z,4.59
2022-11-27T04:41:06.267Z,4.61
2022-11-27T04:43:33.063Z,4.54
2022-11-27T04:45:59.860Z,4.62
2022-11-27T04:48:27.225Z,4.62
2022-11-27T04:50:55.331Z,4.64
2022-11-27T04:53:22.145Z,4.66
2022-11-27T04:55:50.731Z,4.68
2022-11-27T04:58:17.461Z,4.64
2022-11-27T05:00:44.292Z,4.61
2022-11-27T05:03:12.208Z,4.64
2022-11-27T05:05:38.997Z,4.54
2022-11-27T05:08:05.843Z,4.65
2022-11-27T05:10:32.789Z,4.66
2022-11-27T05:12:59.562Z,4.67
2022-11-27T05:15:26.366Z,4.67
2022-11-27T05:17:53.426Z,4.67
2022-11-27T05:20:20.245Z,4.66
2022-11-27T05:22:48.257Z,4.69
2022-11-27T05:25:15.196Z,4.67
2022-11-27T05:27:41.941Z,4.68
2022-11-27T05:30:10.141Z,4.67
2022-11-27T05:32:37.241Z,4.69
2022-11-27T05:35:04.144Z,4.69
2022-11-27T05:37:30.962Z,4.68
2022-11-27T05:39:58.017Z,4.71
2022-11-27T05:42:24.707Z,4.67
2022-11-27T05:44:56.671Z,4.73
2022-11-27T05:47:25.160Z,4.75
2022-11-27T05:49:52.067Z,4.74
2022-11-27T05:52:19.058Z,4.71
2022-11-27T05:54:45.823Z,4.72
2022-11-27T05:57:12.548Z,4.71
2022-11-27T05:59:39.296Z,4.73
2022-11-27T06:02:06.275Z,4.72
2022-11-27T06:04:34.844Z,4.72
2022-11-27T06:07:01.693Z,4.74
2022-11-27T06:09:28.586Z,4.75
2022-11-27T06:11:55.505Z,4.75
2022-11-27T06:14:22.288Z,4.70
2022-11-27T06:16:49.244Z,4.76
2022-11-27T06:19:16.103Z,4.75
2022-11-27T06:21:43.257Z,4.76
2022-11-27T06:24:10.825Z,4.77
2022-11-27T06:26:37.779Z,4.79
2022-11-27T06:29:05.017Z,4.81
2022-11-27T06:31:33.226Z,4.81
2022-11-27T06:34:00.739Z,4.83
2022-11-27T06:36:40.759Z,4.83
2022-11-27T06:39:10.200Z,4.85
2022-11-27T06:41:37.097Z,4.85
2022-11-27T06:44:04.307Z,4.86
2022-11-27T06:46:31.301Z,4.84
2022-11-27T06:48:58.941Z,4.85
2022-11-27T06:51:28.050Z,4.89
2022-11-27T06:53:55.473Z,4.89
2022-11-27T06:56:25.093Z,4.88
2022-11-27T06:58:58.744Z,4.89
2022-11-27T07:01:28.916Z,4.90
2022-11-27T07:03:56.561Z,4.88
2022-11-27T07:06:24.989Z,4.87
2022-11-27T07:08:52.373Z,4.87
2022-11-27T07:11:22.255Z,4.89
2022-11-27T07:13:50.475Z,4.96
2022-11-27T07:16:18.709Z,4.97
2022-11-27T07:18:48.432Z,4.97
2022-11-27T07:21:15.527Z,5.00
2022-11-27T07:23:42.704Z,5.02
2022-11-27T07:26:24.354Z,5.04
2022-11-27T07:28:51.820Z,5.06
2022-11-27T07:31:26.509Z,5.06
2022-11-27T07:33:54.046Z,5.05
2022-11-27T07:36:23.303Z,5.07
2022-11-27T07:38:50.684Z,5.09
2022-11-27T07:41:18.156Z,5.07
2022-11-27T07:43:46.309Z,5.17
2022-11-27T07:46:22.153Z,5.19
2022-11-27T07:48:49.256Z,5.23
2022-11-27T07:51:17.984Z,5.27
2022-11-27T07:53:45.339Z,5.30
2022-11-27T07:56:14.788Z,5.34
2022-11-27T07:58:41.640Z,5.35
2022-11-27T08:01:10.836Z,5.39
2022-11-27T08:03:38.328Z,5.43
2022-11-27T08:06:05.509Z,5.41
2022-11-27T08:08:33.100Z,5.46
2022-11-27T08:10:59.916Z,5.47
2022-11-27T08:13:26.740Z,5.52
2022-11-27T08:15:59.839Z,5.56
2022-11-27T08:18:26.715Z,5.58
2022-11-27T08:20:53.524Z,5.63
2022-11-27T08:23:20.309Z,5.66
2022-11-27T08:25:47.056Z,5.68
2022-11-27T08:28:13.802Z,5.70
2022-11-27T08:30:40.530Z,5.72
2022-11-27T08:33:07.277Z,5.72
2022-11-27T08:35:34.014Z,5.68
2022-11-27T08:38:01.036Z,5.75
2022-11-27T08:40:27.878Z,5.70
2022-11-27T08:42:54.654Z,5.78
2022-11-27T08:45:21.527Z,5.82
2022-11-27T08:47:48.580Z,5.86
2022-11-27T08:50:16.234Z,5.89
2022-11-27T08:52:42.976Z,5.89
2022-11-27T08:55:09.863Z,5.91
2022-11-27T08:57:36.606Z,5.92
2022-11-27T09:00:07.737Z,5.94
2022-11-27T09:02:35.004Z,5.91
2022-11-27T09:05:02.811Z,5.94
2022-11-27T09:07:29.764Z,5.93
2022-11-27T09:09:58.106Z,5.95
2022-11-27T09:12:24.988Z,5.86
2022-11-27T09:14:51.745Z,5.88
2022-11-27T09:17:18.706Z,5.89
2022-11-27T09:19:46.462Z,5.86
2022-11-27T09:22:13.201Z,5.85
2022-11-27T09:24:40.188Z,5.79
2022-11-27T09:27:07.125Z,5.86
2022-11-27T09:29:34.947Z,5.87
2022-11-27T09:32:01.867Z,5.81
2022-11-27T09:34:30.468Z,5.76
2022-11-27T09:36:59.072Z,5.80
2022-11-27T09:39:30.554Z,5.85
2022-11-27T09:42:00.283Z,5.82
2022-11-27T09:44:40.222Z,5.80
2022-11-27T09:47:32.243Z,5.82
2022-11-27T09:50:03.385Z,5.81
2022-11-27T09:52:39.807Z,5.82
2022-11-27T09:55:12.750Z,5.83
2022-11-27T09:57:44.562Z,5.82
2022-11-27T10:00:19.842Z,5.78
2022-11-27T10:02:48.206Z,5.80
2022-11-27T10:05:22.976Z,5.83
2022-11-27T10:07:52.840Z,5.79
2022-11-27T10:10:41.114Z,5.79
2022-11-27T10:13:13.820Z,5.83
2022-11-27T10:16:00.858Z,5.82
2022-11-27T10:18:37.394Z,5.79
2022-11-27T10:21:39.287Z,5.79
2022-11-27T10:24:23.655Z,5.82
2022-11-27T10:26:54.250Z,5.87
2022-11-27T10:29:30.079Z,5.88
2022-11-27T10:32:01.955Z,5.92
2022-11-27T10:34:40.160Z,5.95
2022-11-27T10:37:23.767Z,5.97
2022-11-27T10:39:58.988Z,5.97
2022-11-27T10:42:44.862Z,6.00
2022-11-27T10:45:37.030Z,6.01
2022-11-27T10:48:04.308Z,6.06
2022-11-27T10:50:31.278Z,5.98
2022-11-27T10:53:02.732Z,6.11
2022-11-27T10:55:55.435Z,6.11
2022-11-27T10:58:31.429Z,6.16
2022-11-27T11:01:16.412Z,6.19
2022-11-27T11:03:43.407Z,6.22
2022-11-27T11:06:22.328Z,6.22
2022-11-27T11:09:13.333Z,6.28
2022-11-27T11:11:40.286Z,6.28
2022-11-27T11:14:22.755Z,6.28
2022-11-27T11:16:50.806Z,6.24
2022-11-27T11:19:28.099Z,6.32
2022-11-27T11:21:55.172Z,6.32
2022-11-27T11:24:31.005Z,6.30
2022-11-27T11:27:21.446Z,6.29
2022-11-27T11:30:01.134Z,6.36
2022-11-27T11:32:31.259Z,6.39
2022-11-27T11:35:26.120Z,6.36
2022-11-27T11:37:53.597Z,6.43
2022-11-27T11:40:20.356Z,6.45
2022-11-27T11:42:57.389Z,6.56
2022-11-27T11:45:28.631Z,6.58
2022-11-27T11:48:00.821Z,6.70
2022-11-27T11:50:53.029Z,6.82
2022-11-27T11:53:37.040Z,6.95
2022-11-27T11:56:32.976Z,7.09
2022-11-27T11:59:07.069Z,7.09
2022-11-27T12:02:22.363Z,7.07
2022-11-27T12:05:30.733Z,7.10
2022-11-27T12:08:19.199Z,7.00
2022-11-27T12:10:54.929Z,6.81
2022-11-27T12:13:42.609Z,6.74
2022-11-27T12:16:21.012Z,6.69
2022-11-27T12:18:54.559Z,6.66
2022-11-27T12:21:35.379Z,6.67
2022-11-27T12:24:09.289Z,6.61
2022-11-27T12:27:04.598Z,6.65
2022-11-27T12:29:40.709Z,6.61
2022-11-27T12:32:47.797Z,6.37
2022-11-27T12:35:20.620Z,6.42
2022-11-27T12:38:15.289Z,6.39
2022-11-27T12:41:00.497Z,6.46
2022-11-27T12:43:33.648Z,6.38
2022-11-27T12:46:12.429Z,6.32
2022-11-27T12:48:45.288Z,6.34
2022-11-27T12:51:23.494Z,6.32
2022-11-27T12:54:17.728Z,6.29
2022-11-27T12:56:52.396Z,6.38
2022-11-27T12:59:38.989Z,6.41
2022-11-27T13:02:31.070Z,6.42
2022-11-27T13:05:02.807Z,6.43
2022-11-27T13:07:47.785Z,6.39
2022-11-27T13:10:45.655Z,6.29
2022-11-27T13:13:50.464Z,6.32
2022-11-27T13:16:27.161Z,6.20
2022-11-27T13:19:07.043Z,6.26
2022-11-27T13:21:35.731Z,6.27
2022-11-27T13:24:03.729Z,6.25
2022-11-27T13:26:39.717Z,6.19
2022-11-27T13:29:21.786Z,6.26
2022-11-27T13:31:54.581Z,6.25
2022-11-27T13:34:26.780Z,6.20
2022-11-27T13:37:26.606Z,6.22
2022-11-27T13:40:01.367Z,6.13
2022-11-27T13:42:29.301Z,6.11
2022-11-27T13:45:03.428Z,6.16
2022-11-27T13:47:39.263Z,6.17
2022-11-27T13:50:11.961Z,6.11
2022-11-27T13:53:00.189Z,6.05
2022-11-27T13:55:30.367Z,6.13
2022-11-27T13:58:01.376Z,5.96
2022-11-27T14:00:39.262Z,6.02
2022-11-27T14:03:10.574Z,5.98
2022-11-27T14:05:46.098Z,6.01
2022-11-27T14:08:36.634Z,5.94
2022-11-27T14:11:13.894Z,5.99
2022-11-27T14:13:48.041Z,5.98
2022-11-27T14:16:26.930Z,6.01
2022-11-27T14:18:57.509Z,5.96
2022-11-27T14:21:39.326Z,5.95
2022-11-27T14:24:33.803Z,5.96
2022-11-27T14:27:00.924Z,5.94
2022-11-27T14:29:31.369Z,5.88
2022-11-27T14:32:03.167Z,5.82
2022-11-27T14:34:34.306Z,5.83
2022-11-27T14:37:01.884Z,5.81
2022-11-27T14:39:31.465Z,5.82
2022-11-27T14:42:07.954Z,5.74
2022-11-27T14:44:35.131Z,5.79
2022-11-27T14:47:05.561Z,5.81
2022-11-27T14:49:33.845Z,5.79
2022-11-27T14:52:14.886Z,5.74
2022-11-27T14:54:42.471Z,5.74
2022-11-27T14:57:17.283Z,5.72
2022-11-27T14:59:46.955Z,5.54
2022-11-27T15:02:13.837Z,5.65
2022-11-27T15:04:45.658Z,5.67
2022-11-27T15:07:29.557Z,5.67
2022-11-27T15:10:01.106Z,5.57
2022-11-27T15:12:45.856Z,5.68
2022-11-27T15:15:23.776Z,5.69
2022-11-27T15:17:56.139Z,5.71
2022-11-27T15:20:49.904Z,5.71
2022-11-27T15:23:20.053Z,5.73
2022-11-27T15:26:15.037Z,5.64
2022-11-27T15:28:53.599Z,5.62
2022-11-27T15:31:38.713Z,5.62
2022-11-27T15:34:17.897Z,5.61
2022-11-27T15:36:48.754Z,5.58
2022-11-27T15:39:49.562Z,5.54
2022-11-27T15:42:17.702Z,5.57
2022-11-27T15:44:45.880Z,5.49
2022-11-27T15:47:26.997Z,5.55
2022-11-27T15:49:58.015Z,5.53
2022-11-27T15:52:25.533Z,5.51
2022-11-27T15:54:53.273Z,5.44
2022-11-27T15:57:20.528Z,5.43
2022-11-27T15:59:49.111Z,5.50
2022-11-27T16:02:18.315Z,5.49
2022-11-27T16:04:45.670Z,5.48
2022-11-27T16:07:12.759Z,5.52
2022-11-27T16:09:40.586Z,5.55
2022-11-27T16:12:07.673Z,5.57
2022-11-27T16:14:34.691Z,5.53
2022-11-27T16:17:01.772Z,5.50
2022-11-27T16:19:29.103Z,5.50
2022-11-27T16:21:57.410Z,5.50
2022-11-27T16:24:24.648Z,5.50
2022-11-27T16:26:51.683Z,5.48
2022-11-27T16:29:18.563Z,5.46
2022-11-27T16:31:45.747Z,5.46
2022-11-27T16:34:14.780Z,5.47
2022-11-27T16:36:44.855Z,5.41
2022-11-27T16:39:12.765Z,5.41
2022-11-27T16:41:40.365Z,5.40
2022-11-27T16:44:12.090Z,5.40
2022-11-27T16:46:39.559Z,5.43
2022-11-27T16:49:10.254Z,5.46
2022-11-27T16:51:39.426Z,5.40
2022-11-27T16:54:08.595Z,5.38
2022-11-27T16:56:35.852Z,5.37
2022-11-27T16:59:03.615Z,5.36
2022-11-27T17:01:34.643Z,5.32
2022-11-27T17:04:04.941Z,5.31
2022-11-27T17:06:33.524Z,5.31
2022-11-27T17:09:03.485Z,5.32
2022-11-27T17:11:34.011Z,5.33
2022-11-27T17:14:04.129Z,5.32
2022-11-27T17:16:31.232Z,5.31
2022-11-27T17:18:58.704Z,5.30
2022-11-27T17:21:32.552Z,5.28
2022-11-27T17:24:02.433Z,5.28
2022-11-27T17:26:31.572Z,5.26
2022-11-27T17:28:59.605Z,5.24
2022-11-27T17:31:31.163Z,5.22
2022-11-27T17:33:59.278Z,5.23
2022-11-27T17:36:28.068Z,5.23
2022-11-27T17:38:56.030Z,5.22
2022-11-27T17:41:23.398Z,5.21
2022-11-27T17:43:50.763Z,5.24
2022-11-27T17:46:23.925Z,5.17
2022-11-27T17:48:52.849Z,5.15
2022-11-27T17:51:23.632Z,5.22
2022-11-27T17:53:50.847Z,5.20
2022-11-27T17:56:20.872Z,5.22
2022-11-27T17:58:48.189Z,5.25
2022-11-27T18:01:25.089Z,5.24
2022-11-27T18:03:57.916Z,5.16
2022-11-27T18:06:25.044Z,5.19
2022-11-27T18:08:52.835Z,5.22
2022-11-27T18:11:22.547Z,5.12
2022-11-27T18:13:50.026Z,5.09
2022-11-27T18:16:24.038Z,5.12
2022-11-27T18:18:51.955Z,5.12
2022-11-27T18:21:21.363Z,5.14
2022-11-27T18:24:21.226Z,5.12
2022-11-27T18:27:07.857Z,4.98
2022-11-27T18:29:24.750Z,5.06
2022-11-27T18:31:53.206Z,4.98
2022-11-27T18:34:20.389Z,4.99
2022-11-27T18:36:47.774Z,5.03
2022-11-27T18:39:16.031Z,4.91
2022-11-27T18:41:42.917Z,5.01
2022-11-27T18:44:10.340Z,5.00
2022-11-27T18:46:38.061Z,4.98
2022-11-27T18:49:06.985Z,4.94
2022-11-27T18:51:34.502Z,4.95
2022-11-27T18:54:01.927Z,4.82
2022-11-27T18:56:31.753Z,4.92
2022-11-27T18:59:03.736Z,4.93
2022-11-27T19:01:38.146Z,4.91
2022-11-27T19:04:09.071Z,4.86
2022-11-27T19:06:37.268Z,4.84
2022-11-27T19:09:05.014Z,4.86
2022-11-27T19:11:36.529Z,4.87
2022-11-27T19:14:06.414Z,4.92
2022-11-27T19:16:42.402Z,4.89
2022-11-27T19:19:49.452Z,4.82
2022-11-27T19:21:57.811Z,4.91
2022-11-27T19:24:25.145Z,4.87
2022-11-27T19:26:52.687Z,4.97
2022-11-27T19:29:19.931Z,4.99
2022-11-27T19:31:47.222Z,4.90
2022-11-27T19:34:18.727Z,4.97
2022-11-27T19:36:46.152Z,5.01
2022-11-27T19:39:15.231Z,5.01
2022-11-27T19:41:43.738Z,5.02
2022-11-27T19:44:13.133Z,5.02
2022-11-27T19:46:40.811Z,5.05
2022-11-27T19:49:15.710Z,5.04
2022-11-27T19:51:42.668Z,5.02
2022-11-27T19:54:14.258Z,4.98
2022-11-27T19:56:43.537Z,5.01
2022-11-27T19:59:14.572Z,5.02
2022-11-27T20:01:45.597Z,5.02
2022-11-27T20:04:15.886Z,5.07
2022-11-27T20:06:42.963Z,5.05
2022-11-27T20:09:14.269Z,5.05
2022-11-27T20:11:42.616Z,5.05
2022-11-27T20:14:09.510Z,5.04
2022-11-27T20:16:37.084Z,5.04
2022-11-27T20:19:06.367Z,5.02
2022-11-27T20:21:34.251Z,5.04
2022-11-27T20:24:01.715Z,5.02
2022-11-27T20:26:30.958Z,5.01
2022-11-27T20:28:59.292Z,5.02
2022-11-27T20:31:29.804Z,4.99
2022-11-27T20:34:01.217Z,4.95
2022-11-27T20:36:33.098Z,4.87
2022-11-27T20:39:08.592Z,4.92
2022-11-27T20:41:36.173Z,4.88
2022-11-27T20:44:05.314Z,4.85
2022-11-27T20:46:33.550Z,4.83
2022-11-27T20:49:01.306Z,4.86
2022-11-27T20:51:31.757Z,4.83
2022-11-27T20:54:01.649Z,4.80
2022-11-27T20:56:30.240Z,4.81
2022-11-27T20:58:57.979Z,4.84
2022-11-27T21:01:29.910Z,4.83
2022-11-27T21:03:59.301Z,4.83
2022-11-27T21:06:29.199Z,4.83
2022-11-27T21:08:56.822Z,4.84
2022-11-27T21:11:26.626Z,4.90
2022-11-27T21:13:59.997Z,4.92
2022-11-27T21:16:30.064Z,4.97
2022-11-27T21:19:02.456Z,4.97
2022-11-27T21:21:30.254Z,4.88
2022-11-27T21:23:58.388Z,4.91
2022-11-27T21:26:26.052Z,4.87
2022-11-27T21:28:53.203Z,4.87
2022-11-27T21:31:23.955Z,4.87
2022-11-27T21:33:51.748Z,4.84
2022-11-27T21:36:20.547Z,4.81
2022-11-27T21:38:48.048Z,4.81
2022-11-27T21:41:17.419Z,4.78
2022-11-27T21:43:45.788Z,4.76
2022-11-27T21:46:18.966Z,4.77
2022-11-27T21:48:47.490Z,4.74
2022-11-27T21:51:15.914Z,4.78
2022-11-27T21:53:43.957Z,4.81
2022-11-27T21:56:13.556Z,4.77
2022-11-27T21:58:40.525Z,4.78
2022-11-27T22:01:10.767Z,4.82
2022-11-27T22:03:42.313Z,4.77
2022-11-27T22:06:15.128Z,4.83
2022-11-27T22:09:02.566Z,4.84
2022-11-27T22:11:32.997Z,4.83
2022-11-27T22:14:05.831Z,4.87
2022-11-27T22:16:37.654Z,4.84
2022-11-27T22:19:10.209Z,4.87
2022-11-27T22:21:37.055Z,4.83
2022-11-27T22:24:04.744Z,4.72
2022-11-27T22:26:31.689Z,4.70
2022-11-27T22:28:59.076Z,4.71
2022-11-27T22:31:31.123Z,4.71
2022-11-27T22:33:58.064Z,4.68
2022-11-27T22:36:26.278Z,4.70
2022-11-27T22:38:54.767Z,4.66
2022-11-27T22:41:24.201Z,4.65
2022-11-27T22:43:51.557Z,4.60
2022-11-27T22:46:22.199Z,4.59
2022-11-27T22:48:55.737Z,4.60
2022-11-27T22:51:23.153Z,4.58
2022-11-27T22:53:50.357Z,4.55
2022-11-27T22:56:17.820Z,4.52
2022-11-27T22:58:45.253Z,4.59
2022-11-27T23:01:20.644Z,4.57
2022-11-27T23:03:47.479Z,4.54
2022-11-27T23:06:16.504Z,4.55
2022-11-27T23:08:45.346Z,4.54
2022-11-27T23:11:16.864Z,4.55
2022-11-27T23:13:49.476Z,4.58
2022-11-27T23:16:18.171Z,4.56
2022-11-27T23:18:45.256Z,4.54
2022-11-27T23:21:17.559Z,4.58
2022-11-27T23:23:44.953Z,4.60
2022-11-27T23:26:18.071Z,4.62
2022-11-27T23:28:46.687Z,4.51
2022-11-27T23:31:32.885Z,4.60
2022-11-27T23:34:02.016Z,4.59
2022-11-27T23:36:30.451Z,4.57
2022-11-27T23:39:00.122Z,4.56
2022-11-27T23:41:28.400Z,4.54
2022-11-27T23:43:55.702Z,4.48
2022-11-27T23:46:26.447Z,4.46
2022-11-27T23:48:55.025Z,4.48
2022-11-27T23:51:25.884Z,4.43
2022-11-27T23:53:53.676Z,4.44
2022-11-27T23:56:23.391Z,4.45
2022-11-27T23:58:50.644Z,4.45
